ilmateenistus.ee keskkonnaagentuur.ee
EETN Tallinna lennuväli
FTEO31 EETN 220500
TAF EETN 220530Z 2206/2306 30020G32KT 9999 BKN030 TEMPO 2206/2212
    BKN015 SCT020CB PROB40 TEMPO 2206/2212 4000 SHSNRA BECMG 2212/2214
    34016G26KT BECMG 2220/2222 32012KT PROB40 TEMPO 2220/2224 SCT020CB=

METAR EETN 220720Z 30017G27KT 9999 BKN031 03/M03 Q1003 R08/12//95 TEMPO 31020G32KT=
Tallinna lennuväli
EEKA Kärdla lennuväli
FCEO32 EETN 220400
TAF EEKA 220400Z 2205/2211 32020G30KT 9999 SCT030 TEMPO 2205/2211
    32026G40KT BKN015 SCT020CB PROB40 TEMPO 2205/2211 4000 SHSNRA=

METAR EEKA 220650Z 33026G37KT 9999 BKN037 04/M03 Q1006=
Kärdla lennuväli
EEKE Kuressaare lennuväli
FCEO32 EETN 220600
TAF EEKE 220600Z 2207/2213 32016KT 9999 SCT030 TEMPO 2207/2213
    33020G32KT SCT015CB BKN025 PROB40 TEMPO 2207/2210 4000 SHRASN=

METAR EEKE 220650Z 33015G26KT 290V350 9999 VCSH SCT038CB BKN049 04/M03 Q1008 R17/190095=
Kuressaare lennuväli
EEPU Pärnu lennuväli
METAR EEPU 220650Z 30011KT 280V340 9999 SCT012 03/M02 Q1005=
Pärnu lennuväli
EETU Tartu lennuväli
METAR EETU 220720Z AUTO 28010KT 250V320 9999 FEW021/// BKN038/// BKN051/// 02/M03 Q1002=
Tartu lennuväli
EEEI Ämari lennuväli
METAR EEEI 220650Z 29019G29KT 9999 SCT035 03/M03 Q1004 R24/090095 NOSIG=
Ämari lennuväli